Hovedside
METAR-TAF:

METAR-TAF

Lufthavner :

Västerås lufthavn

Västerås, Sverige

breddegrad: 59-35N, lengdegrad: 016-38E, høyde over havet: 6 m

Gjeldene værobservasjon

Denne rapporten ble laget for 34 minutter siden, klokken 19:20 UTC
Vind 8 kt fra Sør-sørøst
Temperatur 20°C
Luftfuktighet 73%
Trykk 1013 hPa
Sikt 10 km eller mer

METAR: ESOW 161920Z AUTO 16008KT 9999 BKN072/// 20/15 Q1013

Tid: 21:54 (19:54 UTC)

Varsel

Denne rapporten ble laget for 8 timer og 24 minutter siden, klokken 11:30 UTC
Varsel gyldig fra 16. klokken 12 UTC til 16. klokken 17 UTC
Vind 12 kt fra Sør
Sikt 10 km eller mer
ingen skyer under 1500 m og ingen bygeskyer

TAF: ESOW 161130Z 1612/1617 19012KT CAVOK

Værobservasjoner og værvarsel for over 4000 flyplasser (METAR- og TAF-rapporter).

Tilgjengelige stasjoner er representert av de røde og gule prikkene på kartet.

Hold musepekeren over prikken for å se navnet på stasjonen.

Klikk så for å se værobservasjoner og -varsler.

For å forandre kartet kan du klikke på den grønne knappen med svart kryss for å zoome inn, på den grønne knappen med strek for å zoome ut, eller på de grønne pilene for å se tilstøtende kart.


METAR-TAF: